Time;durP1;ratioP1;P1;durP2;ratioP2;P2;SDS_P1;SDS_P2;PMS_P1;PMS_P2;Temp;Humidity;BMP_temperature;BMP_pressure;BME280_temperature;BME280_humidity;BME280_pressure;Samples;Min_cycle;Max_cycle;Signal;HPM_P1;HPM_P2
2022/05/18 00:02:08;;;;;;;;;;;;;;;22.05;27.09;97347.16;5037432;28;921;-75
2022/05/18 00:04:33;;;;;;;;;;;;;;;21.82;27.27;97352.06;5037028;28;893;-75
2022/05/18 00:06:59;;;;;;;;;;;;;;;21.69;27.59;97348.50;5037365;28;854;-75
2022/05/18 00:09:24;;;;;;;;;;;;;;;21.73;27.47;97348.38;5037007;28;1898;-75
2022/05/18 00:11:50;;;;;;;;;;;;;;;21.51;27.76;97348.38;5037601;28;873;-75
2022/05/18 00:14:15;;;;;;;;;;;;;;;21.53;28.01;97345.88;5037205;28;944;-75
2022/05/18 00:16:41;;;;;;;;;;;;;;;21.63;27.65;97356.00;5037194;28;941;-75
2022/05/18 00:19:06;;;;;;;;;;;;;;;21.43;28.18;97359.16;5035114;28;1093;-75
2022/05/18 00:21:33;;;;;;;;;;;;;;;21.80;27.75;97377.19;5036881;28;1041;-75
2022/05/18 00:23:58;;;;;;;;;;;;;;;22.00;27.45;97390.25;5036972;28;952;-75
2022/05/18 00:26:24;;;;;;;;;;;;;;;21.85;27.66;97384.31;5037096;28;904;-75
2022/05/18 00:28:50;;;;;;;;;;;;;;;21.67;28.33;97393.47;5037064;28;1960;-75
2022/05/18 00:31:17;;;;;;;;;;;;;;;21.46;28.75;97391.44;5036893;28;964;-75
2022/05/18 00:33:42;;;;;;;;;;;;;;;21.71;28.68;97385.66;5052464;28;872;-75
2022/05/18 00:36:08;;;;;;;;;;;;;;;21.72;29.23;97367.41;5036812;28;924;-75
2022/05/18 00:38:33;;;;;;;;;;;;;;;22.12;28.86;97374.44;5036950;28;927;-75
2022/05/18 00:40:59;;;;;;;;;;;;;;;22.33;28.71;97365.91;5036970;28;1019;-75
2022/05/18 00:43:30;;;;;;;;;;;;;;;21.92;29.51;97366.28;5034820;28;924;-75
2022/05/18 00:45:56;;;;;;;;;;;;;;;21.66;30.12;97369.25;5036648;28;863;-75
2022/05/18 00:48:22;;;;;;;;;;;;;;;21.87;29.70;97370.50;5052298;28;925;-75
2022/05/18 00:50:47;;;;;;;;;;;;;;;21.60;30.34;97368.25;5036271;28;1913;-75
2022/05/18 00:53:19;;;;;;;;;;;;;;;21.66;30.23;97369.25;5051930;28;951;-75
2022/05/18 00:55:48;;;;;;;;;;;;;;;21.72;30.41;97381.56;5036667;28;912;-75
2022/05/18 00:58:20;;;;;;;;;;;;;;;21.69;30.39;97382.47;5034189;28;1041;-75
2022/05/18 01:00:46;;;;;;;;;;;;;;;21.63;30.70;97384.31;4975374;28;975;-75
2022/05/18 01:03:17;;;;;;;;;;;;;;;21.75;30.82;97391.16;4959374;28;1026;-75
2022/05/18 01:05:43;;;;;;;;;;;;;;;22.17;30.31;97385.97;4959060;28;997;-75
2022/05/18 01:08:08;;;;;;;;;;;;;;;22.20;30.07;97382.22;4943300;28;1302;-75
2022/05/18 01:10:34;;;;;;;;;;;;;;;21.83;30.30;97370.63;4975322;28;1977;-75
2022/05/18 01:13:02;;;;;;;;;;;;;;;21.66;30.62;97377.75;4958970;28;1017;-75
2022/05/18 01:15:28;;;;;;;;;;;;;;;21.63;30.86;97373.00;4974978;28;1034;-75
2022/05/18 01:17:54;;;;;;;;;;;;;;;21.59;30.48;97383.66;4958846;28;1038;-75
2022/05/18 01:20:21;;;;;;;;;;;;;;;21.65;30.46;97390.31;4959281;28;1201;-75
2022/05/18 01:22:55;;;;;;;;;;;;;;;21.52;30.94;97398.06;4974916;28;1118;-75
2022/05/18 01:25:33;;;;;;;;;;;;;;;21.57;30.58;97386.97;4974941;28;984;-75
2022/05/18 01:27:59;;;;;;;;;;;;;;;21.87;31.14;97401.66;4959211;28;980;-75
2022/05/18 01:30:25;;;;;;;;;;;;;;;22.17;30.33;97393.66;4975293;28;1907;-75
2022/05/18 01:32:51;;;;;;;;;;;;;;;21.97;30.39;97402.50;5014725;28;1025;-75
2022/05/18 01:35:19;;;;;;;;;;;;;;;21.76;30.84;97421.88;5035875;28;906;-75
2022/05/18 01:37:44;;;;;;;;;;;;;;;21.56;31.11;97432.72;5035864;28;1082;-75
2022/05/18 01:40:13;;;;;;;;;;;;;;;21.70;30.79;97457.66;5037530;28;1003;-75
2022/05/18 01:42:38;;;;;;;;;;;;;;;21.65;31.17;97449.75;5055786;28;1206;-75
2022/05/18 01:45:04;;;;;;;;;;;;;;;21.73;31.27;97455.97;5040083;28;849;-75
2022/05/18 01:47:33;;;;;;;;;;;;;;;21.64;31.54;97459.50;5037677;28;1010;-75
2022/05/18 01:49:58;;;;;;;;;;;;;;;21.59;31.85;97468.59;5039471;28;1971;-75
2022/05/18 01:52:24;;;;;;;;;;;;;;;21.98;31.92;97483.41;5055325;28;940;-75
2022/05/18 01:54:50;;;;;;;;;;;;;;;22.25;31.48;97494.97;5039926;28;888;-75
2022/05/18 01:57:15;;;;;;;;;;;;;;;21.98;31.91;97489.06;5039556;28;992;-75
2022/05/18 01:59:41;;;;;;;;;;;;;;;21.88;31.89;97484.56;5039819;28;853;-74
2022/05/18 02:02:12;;;;;;;;;;;;;;;21.72;31.98;97452.34;5037658;28;1394;-75
2022/05/18 02:04:38;;;;;;;;;;;;;;;21.69;31.46;97478.75;5039806;28;968;-75
2022/05/18 02:07:04;;;;;;;;;;;;;;;21.68;31.41;97499.81;5039171;28;998;-75
2022/05/18 02:09:29;;;;;;;;;;;;;;;21.61;31.49;97500.09;5039786;28;1985;-75
2022/05/18 02:11:55;;;;;;;;;;;;;;;21.53;31.54;97482.53;5039579;28;894;-75
2022/05/18 02:14:21;;;;;;;;;;;;;;;21.42;31.64;97470.78;5039500;28;927;-75
2022/05/18 02:16:46;;;;;;;;;;;;;;;21.45;31.77;97477.56;5039381;28;1559;-75
2022/05/18 02:19:12;;;;;;;;;;;;;;;21.49;31.68;97481.06;5039294;28;923;-75
2022/05/18 02:21:37;;;;;;;;;;;;;;;21.29;31.84;97473.59;5039355;28;942;-75
2022/05/18 02:24:03;;;;;;;;;;;;;;;21.45;31.89;97469.06;5039258;28;912;-75
2022/05/18 02:26:29;;;;;;;;;;;;;;;21.72;32.35;97448.75;5039100;28;942;-75
2022/05/18 02:28:54;;;;;;;;;;;;;;;21.96;31.82;97451.91;5054626;28;1982;-75
2022/05/18 02:31:20;;;;;;;;;;;;;;;22.00;31.33;97452.56;5039004;28;941;-75
2022/05/18 02:33:45;;;;;;;;;;;;;;;21.73;31.46;97451.09;5039548;28;964;-75
2022/05/18 02:36:12;;;;;;;;;;;;;;;21.67;31.28;97447.28;5039028;28;933;-75
2022/05/18 02:38:38;;;;;;;;;;;;;;;21.67;31.49;97452.94;5036644;28;890;-75
2022/05/18 02:41:03;;;;;;;;;;;;;;;21.54;31.35;97449.34;5036675;28;1202;-75
2022/05/18 02:43:29;;;;;;;;;;;;;;;21.71;31.03;97439.44;5036674;28;988;-75
2022/05/18 02:46:04;;;;;;;;;;;;;;;21.66;31.13;97434.38;5003553;28;1120;-76
2022/05/18 02:48:29;;;;;;;;;;;;;;;21.67;31.13;97435.94;5036259;28;945;-75
2022/05/18 02:50:55;;;;;;;;;;;;;;;21.60;31.29;97436.19;5036069;28;1922;-75
2022/05/18 02:53:21;;;;;;;;;;;;;;;21.62;31.06;97428.03;5035962;28;943;-75
2022/05/18 02:58:30;;;;;;;;;;;;;;;22.06;31.50;97428.03;5036483;28;990;-75
2022/05/18 03:00:56;;;;;;;;;;;;;;;22.08;30.88;97423.50;5036589;28;1035;-75
2022/05/18 03:03:21;;;;;;;;;;;;;;;21.89;30.98;97429.50;5036112;28;1069;-75
2022/05/18 03:05:47;;;;;;;;;;;;;;;21.65;31.58;97421.44;5036391;28;1084;-75
2022/05/18 03:08:13;;;;;;;;;;;;;;;21.52;31.45;97418.69;5019568;28;979;-75
2022/05/18 03:10:38;;;;;;;;;;;;;;;21.57;31.13;97408.81;5038190;28;1910;-75
2022/05/18 03:13:04;;;;;;;;;;;;;;;21.65;31.32;97398.78;5038588;28;983;-75
2022/05/18 03:15:29;;;;;;;;;;;;;;;21.65;31.33;97392.34;5038613;28;1009;-75
2022/05/18 03:17:55;;;;;;;;;;;;;;;21.52;31.41;97390.38;5038166;28;938;-75
2022/05/18 03:25:48;;;;;;;;;;;;;;;22.04;31.23;97386.03;5038292;28;962;-75
2022/05/18 03:28:13;;;;;;;;;;;;;;;21.74;31.45;97390.38;5035991;28;1088;-75
2022/05/18 03:30:39;;;;;;;;;;;;;;;21.69;31.41;97387.34;5038116;28;1990;-74
2022/05/18 03:33:05;;;;;;;;;;;;;;;21.56;31.55;97384.59;5038068;28;911;-75
2022/05/18 03:35:31;;;;;;;;;;;;;;;21.63;31.13;97389.97;5038010;28;908;-75
2022/05/18 03:37:56;;;;;;;;;;;;;;;21.55;31.27;97389.47;5037535;28;1063;-75
2022/05/18 03:40:21;;;;;;;;;;;;;;;21.57;31.05;97392.63;5036709;28;1729;-75
2022/05/18 03:42:47;;;;;;;;;;;;;;;21.52;31.24;97406.56;5051789;28;1821;-75
2022/05/18 03:45:13;;;;;;;;;;;;;;;21.61;31.15;97420.03;5057497;28;939;-75
2022/05/18 03:47:38;;;;;;;;;;;;;;;21.66;31.45;97428.72;5057413;28;845;-75
2022/05/18 03:50:04;;;;;;;;;;;;;;;22.00;31.48;97421.41;5057580;28;1905;-75
2022/05/18 03:52:30;;;;;;;;;;;;;;;22.16;30.92;97432.56;5057527;28;977;-75
2022/05/18 03:54:55;;;;;;;;;;;;;;;21.98;31.00;97424.72;5057350;28;942;-75
2022/05/18 03:57:21;;;;;;;;;;;;;;;21.84;30.96;97428.06;5032730;28;1587;-74
2022/05/18 03:59:46;;;;;;;;;;;;;;;21.54;31.61;97426.72;5033540;28;2046;-75
2022/05/18 04:02:11;;;;;;;;;;;;;;;21.47;31.31;97432.63;5035320;28;1027;-75
2022/05/18 04:04:37;;;;;;;;;;;;;;;21.45;31.38;97427.44;5035165;28;933;-75
2022/05/18 04:07:02;;;;;;;;;;;;;;;21.39;31.77;97425.63;5035236;28;1110;-75
2022/05/18 04:09:28;;;;;;;;;;;;;;;21.40;31.42;97428.00;5033372;28;1981;-75
2022/05/18 04:11:53;;;;;;;;;;;;;;;21.53;31.20;97447.78;5015470;28;1648;-74
2022/05/18 04:14:19;;;;;;;;;;;;;;;21.42;31.48;97441.69;5015417;28;1001;-75
2022/05/18 04:16:48;;;;;;;;;;;;;;;21.60;31.80;97447.50;5015052;28;1041;-75
2022/05/18 04:19:14;;;;;;;;;;;;;;;21.94;31.41;97448.75;5014926;28;957;-75
2022/05/18 04:21:40;;;;;;;;;;;;;;;22.07;30.84;97455.94;5015134;28;1011;-75
2022/05/18 04:24:05;;;;;;;;;;;;;;;21.80;30.85;97465.00;5015943;28;1499;-75
2022/05/18 04:26:31;;;;;;;;;;;;;;;21.59;31.60;97462.94;5034608;28;1014;-74
2022/05/18 04:28:56;;;;;;;;;;;;;;;21.56;31.21;97452.53;5051639;28;1906;-75
2022/05/18 04:31:21;;;;;;;;;;;;;;;21.64;31.04;97453.06;5056527;28;1018;-75
2022/05/18 04:33:47;;;;;;;;;;;;;;;21.74;30.69;97452.69;5056800;28;879;-75
2022/05/18 04:36:12;;;;;;;;;;;;;;;21.56;31.00;97458.97;5056696;28;987;-75
2022/05/18 04:38:38;;;;;;;;;;;;;;;21.58;31.01;97462.13;5054558;28;1604;-75
2022/05/18 04:41:03;;;;;;;;;;;;;;;21.63;30.83;97463.59;5021015;28;1179;-75
2022/05/18 04:43:32;;;;;;;;;;;;;;;21.60;30.64;97467.34;5056510;28;914;-75
2022/05/18 04:45:57;;;;;;;;;;;;;;;21.87;31.45;97469.63;5056655;28;970;-75
2022/05/18 04:48:24;;;;;;;;;;;;;;;22.15;30.74;97476.31;5054701;28;2253;-75
2022/05/18 04:50:50;;;;;;;;;;;;;;;21.99;31.09;97473.66;5056391;28;1972;-75
2022/05/18 04:53:15;;;;;;;;;;;;;;;21.79;31.07;97471.13;5056387;28;946;-75
2022/05/18 04:55:41;;;;;;;;;;;;;;;21.81;30.72;97480.75;5056635;28;999;-75
2022/05/18 04:58:06;;;;;;;;;;;;;;;21.72;30.93;97480.66;5056297;28;947;-75
2022/05/18 05:00:32;;;;;;;;;;;;;;;21.41;31.31;97479.75;5054035;28;1538;-75
2022/05/18 05:02:57;;;;;;;;;;;;;;;21.60;30.97;97478.66;5036589;28;1518;-74
2022/05/18 05:05:23;;;;;;;;;;;;;;;21.60;31.16;97481.50;5051244;28;1891;-75
2022/05/18 05:07:49;;;;;;;;;;;;;;;21.54;31.68;97483.31;5035949;28;1841;-75
2022/05/18 05:10:16;;;;;;;;;;;;;;;21.89;31.46;97492.59;5035867;28;1974;-75
2022/05/18 05:12:41;;;;;;;;;;;;;;;22.12;30.63;97491.38;5036482;28;965;-75
2022/05/18 05:15:07;;;;;;;;;;;;;;;21.81;30.83;97502.59;5035666;28;918;-75
2022/05/18 05:17:33;;;;;;;;;;;;;;;21.88;30.60;97512.91;4993398;28;1100;-75
2022/05/18 05:19:59;;;;;;;;;;;;;;;21.75;30.79;97510.09;5003762;28;1849;-75
2022/05/18 05:22:25;;;;;;;;;;;;;;;21.82;30.44;97526.84;5018717;28;922;-75
2022/05/18 05:24:50;;;;;;;;;;;;;;;21.63;30.72;97525.09;5035875;28;920;-75
2022/05/18 05:27:15;;;;;;;;;;;;;;;21.58;30.82;97535.75;5036201;28;1056;-75
2022/05/18 05:29:41;;;;;;;;;;;;;;;21.62;30.69;97541.28;5036474;28;1902;-75
2022/05/18 05:32:07;;;;;;;;;;;;;;;21.70;30.56;97545.44;5036033;28;946;-75
2022/05/18 05:34:33;;;;;;;;;;;;;;;21.79;31.24;97556.88;5035943;28;976;-75
2022/05/18 05:36:58;;;;;;;;;;;;;;;22.05;30.78;97562.47;4994311;28;1366;-75
2022/05/18 05:39:23;;;;;;;;;;;;;;;22.04;30.87;97563.72;4994363;28;1052;-75
2022/05/18 05:41:49;;;;;;;;;;;;;;;21.87;30.77;97596.28;4994438;28;1263;-75
2022/05/18 05:44:14;;;;;;;;;;;;;;;21.91;30.54;97591.28;4961883;28;1028;-75
2022/05/18 05:46:40;;;;;;;;;;;;;;;21.67;30.68;97588.84;4994474;28;1063;-75
2022/05/18 05:49:05;;;;;;;;;;;;;;;21.65;31.09;97580.00;4994303;28;1895;-75
2022/05/18 05:51:31;;;;;;;;;;;;;;;21.69;30.72;97586.34;4994038;28;1027;-75
2022/05/18 05:53:56;;;;;;;;;;;;;;;21.63;30.87;97598.72;4994291;28;982;-75
2022/05/18 05:56:22;;;;;;;;;;;;;;;21.88;31.59;97592.22;4994287;28;1641;-75
2022/05/18 05:58:50;;;;;;;;;;;;;;;22.16;30.53;97594.06;4994340;28;977;-75
2022/05/18 06:01:16;;;;;;;;;;;;;;;22.06;30.29;97592.38;4994039;28;998;-75
2022/05/18 06:03:42;;;;;;;;;;;;;;;21.86;30.75;97601.13;4994566;28;1075;-75
2022/05/18 06:06:09;;;;;;;;;;;;;;;21.81;30.46;97605.38;4994363;28;1035;-74
2022/05/18 06:08:35;;;;;;;;;;;;;;;21.75;30.50;97610.00;5025691;28;887;-75
2022/05/18 06:11:00;;;;;;;;;;;;;;;21.66;30.50;97609.09;5035623;28;1918;-75
2022/05/18 06:13:26;;;;;;;;;;;;;;;21.66;30.86;97612.75;5028886;28;1697;-75
2022/05/18 06:15:52;;;;;;;;;;;;;;;21.56;30.71;97616.72;5030759;28;1828;-75
2022/05/18 06:18:17;;;;;;;;;;;;;;;21.73;31.24;97620.22;5035469;28;880;-75
2022/05/18 06:20:44;;;;;;;;;;;;;;;21.90;31.09;97618.81;5035639;28;935;-75
2022/05/18 06:23:10;;;;;;;;;;;;;;;22.14;30.80;97619.25;5035639;28;913;-75
2022/05/18 06:25:35;;;;;;;;;;;;;;;21.74;31.05;97631.06;5035897;28;901;-75
2022/05/18 06:28:01;;;;;;;;;;;;;;;21.63;31.17;97630.63;5047727;28;1422;-75
2022/05/18 06:30:26;;;;;;;;;;;;;;;21.65;30.75;97642.28;5059145;28;2005;-75
2022/05/18 06:32:53;;;;;;;;;;;;;;;21.49;30.82;97646.03;5059084;28;916;-75
2022/05/18 06:35:18;;;;;;;;;;;;;;;21.49;31.08;97663.03;5056973;28;1356;-75
2022/05/18 06:37:44;;;;;;;;;;;;;;;21.48;31.00;97671.97;5056126;28;1546;-74
2022/05/18 06:40:09;;;;;;;;;;;;;;;21.45;31.43;97684.19;5007121;28;1103;-75
2022/05/18 06:42:35;;;;;;;;;;;;;;;21.94;30.88;97683.84;5059107;28;1059;-75
2022/05/18 06:45:00;;;;;;;;;;;;;;;22.26;30.23;97700.59;5058833;28;938;-75
2022/05/18 06:47:26;;;;;;;;;;;;;;;21.93;30.48;97705.72;5058728;28;977;-75
2022/05/18 06:49:52;;;;;;;;;;;;;;;21.80;30.45;97702.88;5058862;28;1902;-75
2022/05/18 06:52:18;;;;;;;;;;;;;;;21.65;30.46;97715.91;5056128;28;1538;-75
2022/05/18 06:54:44;;;;;;;;;;;;;;;21.73;30.23;97717.28;5016288;28;994;-75
2022/05/18 06:57:09;;;;;;;;;;;;;;;21.43;30.66;97726.31;5016855;28;988;-75
2022/05/18 06:59:35;;;;;;;;;;;;;;;21.47;30.59;97727.00;5016484;28;921;-75
2022/05/18 07:02:01;;;;;;;;;;;;;;;21.51;30.60;97733.34;5000028;28;963;-75
2022/05/18 07:04:26;;;;;;;;;;;;;;;21.73;31.15;97734.28;5015833;28;1082;-75
2022/05/18 07:06:52;;;;;;;;;;;;;;;21.88;30.87;97736.66;5014412;28;1543;-75
2022/05/18 07:09:18;;;;;;;;;;;;;;;22.17;30.34;97734.50;5016511;28;1976;-75
2022/05/18 07:11:45;;;;;;;;;;;;;;;21.92;30.24;97735.31;4996517;28;1024;-75
2022/05/18 07:14:12;;;;;;;;;;;;;;;21.73;30.63;97737.09;4996624;28;1036;-75
2022/05/18 07:16:37;;;;;;;;;;;;;;;21.58;30.45;97741.63;4996543;28;957;-75
2022/05/18 07:19:03;;;;;;;;;;;;;;;21.43;30.68;97746.13;4996329;28;995;-75
2022/05/18 07:21:29;;;;;;;;;;;;;;;21.47;30.52;97744.78;4994131;28;1537;-75
2022/05/18 07:23:54;;;;;;;;;;;;;;;21.39;30.57;97748.25;4992288;28;1467;-75
2022/05/18 07:26:20;;;;;;;;;;;;;;;21.51;30.42;97765.28;5006772;28;969;-75
2022/05/18 07:28:46;;;;;;;;;;;;;;;22.00;30.52;97775.53;5015984;28;967;-75
2022/05/18 07:31:12;;;;;;;;;;;;;;;22.18;30.00;97784.28;5015865;28;1985;-75
2022/05/18 07:33:37;;;;;;;;;;;;;;;21.96;29.76;97800.31;5015548;28;995;-75
2022/05/18 07:36:03;;;;;;;;;;;;;;;21.60;30.28;97798.56;5013851;28;1543;-75
2022/05/18 07:38:29;;;;;;;;;;;;;;;21.50;30.37;97794.03;5015073;28;993;-75
2022/05/18 07:40:55;;;;;;;;;;;;;;;21.56;30.18;97809.25;5015465;28;1203;-75
2022/05/18 07:43:20;;;;;;;;;;;;;;;21.32;30.45;97849.13;5015585;28;1057;-75
2022/05/18 07:45:46;;;;;;;;;;;;;;;21.97;30.18;97821.78;5015550;28;1012;-76
2022/05/18 07:48:12;;;;;;;;;;;;;;;22.25;29.91;97826.56;5015618;28;959;-75
2022/05/18 07:50:37;;;;;;;;;;;;;;;22.14;29.48;97820.44;5012931;28;1975;-75
2022/05/18 07:53:04;;;;;;;;;;;;;;;21.71;30.01;97830.22;5015571;28;1474;-75
2022/05/18 07:55:29;;;;;;;;;;;;;;;21.60;30.25;97826.88;4958851;28;1655;-75
2022/05/18 07:57:55;;;;;;;;;;;;;;;21.51;30.11;97826.78;4956655;28;962;-75
2022/05/18 08:00:21;;;;;;;;;;;;;;;21.60;30.29;97835.38;4956711;28;1103;-75
2022/05/18 08:02:46;;;;;;;;;;;;;;;21.99;30.20;97847.59;4958295;28;1005;-75
2022/05/18 08:05:12;;;;;;;;;;;;;;;22.24;29.63;97849.69;4967839;28;1501;-75
2022/05/18 08:07:38;;;;;;;;;;;;;;;21.84;29.90;97861.38;4956365;29;1064;-75
2022/05/18 08:15:32;;;;;;;;;;;;;;;21.64;30.80;97884.22;4936518;29;1537;-75
2022/05/18 08:17:57;;;;;;;;;;;;;;;22.04;30.30;97883.88;4936422;29;1470;-75
2022/05/18 08:20:23;;;;;;;;;;;;;;;22.41;29.46;97893.69;4936077;29;1426;-75
2022/05/18 08:22:48;;;;;;;;;;;;;;;21.81;30.17;97911.25;4917265;29;1682;-75
2022/05/18 08:25:14;;;;;;;;;;;;;;;21.79;29.92;97922.22;4917233;29;1484;-75
2022/05/18 08:27:40;;;;;;;;;;;;;;;21.59;30.28;97932.91;4917988;29;1017;-75
2022/05/18 08:30:06;;;;;;;;;;;;;;;21.61;30.23;97930.44;4947456;29;1919;-75
2022/05/18 08:32:31;;;;;;;;;;;;;;;21.74;30.13;97928.44;4953850;28;1817;-75
2022/05/18 08:34:57;;;;;;;;;;;;;;;21.79;30.93;97919.38;4952690;28;1529;-75
2022/05/18 08:37:22;;;;;;;;;;;;;;;22.00;30.52;97920.00;4917886;29;1023;-75
2022/05/18 08:39:49;;;;;;;;;;;;;;;22.30;29.94;97919.53;4936361;29;969;-75
2022/05/18 08:42:14;;;;;;;;;;;;;;;21.93;30.22;97937.22;4935476;29;1567;-75
2022/05/18 08:44:40;;;;;;;;;;;;;;;21.74;30.31;97934.09;4935604;29;1618;-75
2022/05/18 08:47:06;;;;;;;;;;;;;;;21.48;30.62;97953.00;4920412;29;1048;-74
2022/05/18 08:49:34;;;;;;;;;;;;;;;21.57;30.38;97944.69;4914977;29;1919;-75
2022/05/18 08:52:02;;;;;;;;;;;;;;;21.93;31.17;97951.38;4946722;29;1002;-75
2022/05/18 08:54:28;;;;;;;;;;;;;;;22.29;29.97;97951.16;4985897;28;983;-75
2022/05/18 08:56:54;;;;;;;;;;;;;;;22.36;29.72;97963.06;4994658;28;1122;-75
2022/05/18 08:59:24;;;;;;;;;;;;;;;21.85;30.19;97968.56;4994488;28;990;-75
2022/05/18 09:01:51;;;;;;;;;;;;;;;21.71;29.97;97969.00;4975206;28;1032;-75
2022/05/18 09:04:17;;;;;;;;;;;;;;;21.60;30.05;97957.13;4972880;28;1631;-75
2022/05/18 09:06:53;;;;;;;;;;;;;;;21.70;30.87;97961.72;4975145;28;976;-75
2022/05/18 09:12:11;;;;;;;;;;;;;;;22.25;29.51;97944.81;5013990;28;1492;-75
2022/05/18 09:14:39;;;;;;;;;;;;;;;21.92;29.70;97949.81;5011811;28;1473;-75
2022/05/18 09:17:05;;;;;;;;;;;;;;;21.75;29.93;97964.00;5011854;28;1488;-75
2022/05/18 09:19:34;;;;;;;;;;;;;;;21.66;29.79;97963.03;5014141;28;945;-75
2022/05/18 09:22:11;;;;;;;;;;;;;;;21.66;29.81;97963.88;5013732;28;1085;-75
2022/05/18 09:24:52;;;;;;;;;;;;;;;21.61;30.13;97966.44;5013855;28;992;-75
2022/05/18 09:27:36;;;;;;;;;;;;;;;21.89;30.30;97967.69;5013506;28;1123;-75
2022/05/18 09:30:02;;;;;;;;;;;;;;;22.18;29.80;97974.16;5013633;28;1977;-75
2022/05/18 09:32:46;;;;;;;;;;;;;;;22.14;29.55;97981.97;5018157;28;1514;-75
2022/05/18 09:35:14;;;;;;;;;;;;;;;21.62;29.86;97985.81;5033517;28;1005;-75
2022/05/18 09:37:41;;;;;;;;;;;;;;;21.67;29.89;97985.28;5033292;28;1017;-75
2022/05/18 09:40:08;;;;;;;;;;;;;;;21.67;29.78;97985.28;4993880;28;1090;-75
2022/05/18 09:42:34;;;;;;;;;;;;;;;22.24;29.18;97992.19;4977710;28;1120;-75
2022/05/18 09:45:00;;;;;;;;;;;;;;;22.39;29.19;97988.94;4992155;28;1456;-75
2022/05/18 09:47:26;;;;;;;;;;;;;;;21.91;29.43;97996.34;4994300;28;1019;-75
2022/05/18 09:49:52;;;;;;;;;;;;;;;21.90;29.11;97998.38;4977615;28;1898;-75
2022/05/18 09:52:18;;;;;;;;;;;;;;;21.85;28.91;97996.91;4955381;29;958;-75
2022/05/18 09:54:43;;;;;;;;;;;;;;;21.69;29.21;98001.81;4939054;29;1166;-74
2022/05/18 09:57:11;;;;;;;;;;;;;;;21.71;29.30;98013.47;4920018;29;1240;-75
2022/05/18 09:59:40;;;;;;;;;;;;;;;21.94;30.51;98015.28;4916356;29;1531;-75
2022/05/18 10:07:45;;;;;;;;;;;;;;;22.45;28.96;98026.81;4864050;29;966;-75
2022/05/18 10:10:11;;;;;;;;;;;;;;;22.00;29.46;98022.00;4868523;29;1895;-75
2022/05/18 10:12:54;;;;;;;;;;;;;;;21.71;29.76;98017.13;4901730;29;921;-75
2022/05/18 10:15:25;;;;;;;;;;;;;;;21.45;30.32;98021.84;4890574;29;2030;-75
2022/05/18 10:17:55;;;;;;;;;;;;;;;21.72;29.57;98020.75;4889786;29;1981;-75
2022/05/18 10:20:21;;;;;;;;;;;;;;;21.63;29.78;98017.75;4864038;29;961;-75
2022/05/18 10:22:46;;;;;;;;;;;;;;;21.58;30.37;98019.88;4856026;29;1759;-75
2022/05/18 10:25:32;;;;;;;;;;;;;;;21.97;29.91;98020.88;4860912;29;967;-75
2022/05/18 10:27:58;;;;;;;;;;;;;;;22.33;29.18;98023.50;4861361;29;1145;-75
2022/05/18 10:30:30;;;;;;;;;;;;;;;22.01;29.36;98029.25;4882608;29;1984;-75
2022/05/18 10:32:57;;;;;;;;;;;;;;;21.67;30.04;98029.78;4882675;29;1804;-76
2022/05/18 10:35:38;;;;;;;;;;;;;;;21.68;29.52;98032.16;4890699;29;955;-76
2022/05/18 10:38:14;;;;;;;;;;;;;;;21.69;29.39;98039.41;4967754;28;986;-76
2022/05/18 10:40:39;;;;;;;;;;;;;;;21.48;30.04;98040.75;4977346;28;1051;-75
2022/05/18 10:43:17;;;;;;;;;;;;;;;21.45;30.39;98052.16;4977515;28;1232;-76
2022/05/18 10:45:43;;;;;;;;;;;;;;;21.42;30.42;98058.72;4938782;29;1066;-75
2022/05/18 10:48:18;;;;;;;;;;;;;;;21.69;30.90;98061.28;4939088;29;969;-75
2022/05/18 10:50:45;;;;;;;;;;;;;;;22.02;30.12;98064.84;4925408;29;1981;-75
2022/05/18 10:53:13;;;;;;;;;;;;;;;22.10;29.32;98074.75;4890393;29;1928;-75
2022/05/18 10:56:00;;;;;;;;;;;;;;;21.80;29.73;98093.75;4919621;29;1092;-76
2022/05/18 10:58:31;;;;;;;;;;;;;;;21.62;29.92;98096.25;4919269;29;1580;-75
2022/05/18 11:00:58;;;;;;;;;;;;;;;21.43;30.10;98108.44;4919774;29;1012;-75
2022/05/18 11:03:35;;;;;;;;;;;;;;;21.24;30.51;98119.38;4844989;29;1095;-75
2022/05/18 11:06:02;;;;;;;;;;;;;;;21.49;30.19;98118.00;4826203;29;955;-75
2022/05/18 11:08:30;;;;;;;;;;;;;;;21.49;30.20;98121.63;4811242;29;1169;-75
2022/05/18 11:10:58;;;;;;;;;;;;;;;21.57;30.02;98127.91;4830863;29;1911;-75
2022/05/18 11:13:42;;;;;;;;;;;;;;;21.54;29.74;98123.13;4862050;29;1011;-75
2022/05/18 11:16:16;;;;;;;;;;;;;;;21.42;30.13;98123.84;4862415;29;1442;-75
2022/05/18 11:18:50;;;;;;;;;;;;;;;21.50;30.07;98136.56;4879584;29;1674;-75
2022/05/18 11:21:20;;;;;;;;;;;;;;;21.66;30.07;98122.44;4860997;29;1723;-75
2022/05/18 11:23:48;;;;;;;;;;;;;;;21.96;29.20;98129.75;4844720;29;995;-75
2022/05/18 11:26:26;;;;;;;;;;;;;;;22.15;28.70;98128.06;4838678;29;1026;-75
2022/05/18 11:28:55;;;;;;;;;;;;;;;21.77;29.46;98127.84;4826209;29;1261;-75
2022/05/18 11:31:29;;;;;;;;;;;;;;;21.65;29.08;98134.97;4826993;29;1907;-75
2022/05/18 11:34:03;;;;;;;;;;;;;;;21.55;29.42;98147.38;4836315;29;1740;-75
2022/05/18 11:36:31;;;;;;;;;;;;;;;21.51;29.39;98141.81;4902182;29;1008;-75
2022/05/18 11:39:01;;;;;;;;;;;;;;;21.65;29.66;98157.63;4902528;29;2353;-75
2022/05/18 11:41:45;;;;;;;;;;;;;;;22.08;28.74;98157.38;4918397;29;1904;-75
2022/05/18 11:44:16;;;;;;;;;;;;;;;22.18;28.50;98163.25;4914833;29;1817;-75
2022/05/18 11:46:44;;;;;;;;;;;;;;;21.61;29.25;98151.28;4884584;29;1057;-75
2022/05/18 11:52:46;;;;;;;;;;;;;;;21.49;29.42;98160.47;4881021;29;997;-75
2022/05/18 11:55:11;;;;;;;;;;;;;;;21.46;29.13;98156.50;4905973;29;937;-75
2022/05/18 11:57:49;;;;;;;;;;;;;;;21.64;29.18;98156.06;4932080;29;1964;-75
2022/05/18 12:00:45;;;;;;;;;;;;;;;21.95;28.86;98169.88;4936863;29;991;-75
2022/05/18 12:03:13;;;;;;;;;;;;;;;22.27;28.21;98175.53;4899557;29;1013;-75
2022/05/18 12:05:47;;;;;;;;;;;;;;;21.87;28.70;98186.25;4862047;29;1295;-75
2022/05/18 12:08:28;;;;;;;;;;;;;;;21.66;28.95;98179.09;4857749;29;977;-75
2022/05/18 12:11:06;;;;;;;;;;;;;;;21.76;28.71;98175.19;4825338;29;1982;-76
2022/05/18 12:13:44;;;;;;;;;;;;;;;21.55;28.76;98178.50;4842450;29;1013;-75
2022/05/18 12:16:12;;;;;;;;;;;;;;;21.40;29.42;98180.06;4842399;29;2209;-75
2022/05/18 12:18:39;;;;;;;;;;;;;;;21.42;28.92;98183.28;4843406;29;1097;-75
2022/05/18 12:21:13;;;;;;;;;;;;;;;21.50;28.96;98196.84;4844084;29;1386;-75
2022/05/18 12:23:39;;;;;;;;;;;;;;;21.48;29.15;98195.69;4843356;29;1239;-74
2022/05/18 12:26:05;;;;;;;;;;;;;;;21.74;28.74;98197.47;4861597;29;1021;-75
2022/05/18 12:28:30;;;;;;;;;;;;;;;22.02;28.14;98192.34;4843178;29;1068;-75
2022/05/18 12:30:56;;;;;;;;;;;;;;;22.01;28.13;98196.41;4843004;29;1981;-74
2022/05/18 12:33:21;;;;;;;;;;;;;;;21.63;28.96;98199.78;4788223;30;992;-74
2022/05/18 12:36:04;;;;;;;;;;;;;;;21.50;28.79;98196.03;4763281;30;2117;-75
2022/05/18 12:38:34;;;;;;;;;;;;;;;21.38;29.09;98208.84;4788612;30;1023;-75
2022/05/18 12:41:09;;;;;;;;;;;;;;;21.93;28.48;98200.69;4788675;30;1065;-75
2022/05/18 12:43:50;;;;;;;;;;;;;;;22.31;27.72;98193.22;4788571;30;1070;-75
2022/05/18 12:46:15;;;;;;;;;;;;;;;21.75;28.66;98206.78;4788225;30;957;-74
2022/05/18 12:48:44;;;;;;;;;;;;;;;21.53;28.84;98214.97;4789268;29;1086;-75
2022/05/18 12:51:33;;;;;;;;;;;;;;;21.52;28.71;98233.19;4824257;29;2023;-75
2022/05/18 12:54:24;;;;;;;;;;;;;;;21.26;28.91;98232.94;4825041;29;972;-74
2022/05/18 12:57:09;;;;;;;;;;;;;;;21.44;28.88;98234.59;4756781;30;1233;-74
2022/05/18 12:59:56;;;;;;;;;;;;;;;21.39;28.99;98235.09;4751478;30;1120;-74
2022/05/18 13:02:36;;;;;;;;;;;;;;;21.88;28.78;98230.34;4753147;30;1012;-74
2022/05/18 13:05:20;;;;;;;;;;;;;;;22.11;28.17;98218.06;4765394;30;2037;-75
2022/05/18 13:07:46;;;;;;;;;;;;;;;21.74;28.42;98239.97;4770500;30;1181;-75
2022/05/18 13:10:12;;;;;;;;;;;;;;;21.65;28.30;98231.28;4789482;29;1915;-75
2022/05/18 13:12:39;;;;;;;;;;;;;;;21.54;28.64;98230.72;4788557;30;1001;-75
2022/05/18 13:15:14;;;;;;;;;;;;;;;21.38;28.99;98233.50;4787872;30;2140;-74
2022/05/18 13:17:41;;;;;;;;;;;;;;;21.89;28.36;98231.13;4788456;30;1011;-75
2022/05/18 13:20:15;;;;;;;;;;;;;;;22.21;27.72;98227.53;4787414;30;1895;-75
2022/05/18 13:22:44;;;;;;;;;;;;;;;21.82;28.04;98224.41;4839619;29;2121;-75
2022/05/18 13:25:10;;;;;;;;;;;;;;;21.72;28.34;98236.78;4861139;29;1071;-75
2022/05/18 13:27:35;;;;;;;;;;;;;;;21.38;28.92;98236.34;4861255;29;1084;-74
2022/05/18 13:30:02;;;;;;;;;;;;;;;21.59;28.32;98233.81;4864863;29;1911;-75